Time;durP1;ratioP1;P1;durP2;ratioP2;P2;SDS_P1;SDS_P2;PMS_P1;PMS_P2;Temp;Humidity;BMP_temperature;BMP_pressure;BME280_temperature;BME280_humidity;BME280_pressure;Samples;Min_cycle;Max_cycle;Signal;HPM_P1;HPM_P2
2022/02/07 00:01:19;;;;;;;0.60;0.60;;;1.70;99.90;;;;;;5068430;28;20056;-86
2022/02/07 00:04:10;;;;;;;0.73;0.73;;;1.50;99.90;;;;;;5034618;28;20052;-86
2022/02/07 00:06:57;;;;;;;0.60;0.60;;;1.30;99.90;;;;;;5040673;28;20147;-85
2022/02/07 00:09:45;;;;;;;3.55;0.60;;;1.10;99.90;;;;;;5070163;28;20036;-89
2022/02/07 00:12:32;;;;;;;0.70;0.50;;;1.00;99.90;;;;;;5040083;28;20056;-88
2022/02/07 00:15:24;;;;;;;1.10;0.60;;;0.90;99.90;;;;;;5044444;28;20132;-89
2022/02/07 00:18:13;;;;;;;7.90;1.13;;;0.80;99.90;;;;;;5053665;28;20044;-90
2022/02/07 00:21:00;;;;;;;5.38;0.77;;;0.70;99.90;;;;;;5045881;28;20049;-89
2022/02/07 00:23:48;;;;;;;5.22;2.25;;;0.70;99.90;;;;;;5038144;28;20155;-89
2022/02/07 00:26:35;;;;;;;0.60;0.60;;;0.70;99.90;;;;;;5047728;28;20049;-87
2022/02/07 00:29:23;;;;;;;0.65;0.65;;;0.60;99.90;;;;;;5038955;28;20049;-87
2022/02/07 00:32:11;;;;;;;6.90;0.80;;;0.70;99.90;;;;;;5040291;28;20132;-86
2022/02/07 00:35:01;;;;;;;7.53;0.80;;;0.60;99.90;;;;;;5056999;28;20041;-87
2022/02/07 00:37:51;;;;;;;0.57;0.57;;;0.60;99.90;;;;;;5038775;28;20049;-86
2022/02/07 00:43:36;;;;;;;4.95;1.45;;;0.60;99.90;;;;;;5050436;28;20140;-87
2022/02/07 00:46:39;;;;;;;2.47;0.50;;;0.60;99.90;;;;;;5031779;28;20436;-86
2022/02/07 00:49:27;;;;;;;1.13;0.60;;;0.60;99.90;;;;;;5034008;28;20547;-86
2022/02/07 00:52:14;;;;;;;1.15;0.50;;;0.60;99.90;;;;;;5044347;28;20053;-87
2022/02/07 00:55:02;;;;;;;1.30;0.90;;;0.60;99.90;;;;;;5031894;28;20056;-85
2022/02/07 00:57:49;;;;;;;0.50;0.50;;;0.60;99.90;;;;;;5040387;28;20056;-86
2022/02/07 01:00:36;;;;;;;2.40;0.70;;;0.60;99.90;;;;;;5038878;28;20048;-86
2022/02/07 01:03:26;;;;;;;0.90;0.63;;;0.60;99.90;;;;;;5039822;28;20045;-86
2022/02/07 01:06:13;;;;;;;0.70;0.70;;;0.60;99.90;;;;;;5041748;28;20045;-86
2022/02/07 01:09:11;;;;;;;1.00;0.90;;;0.60;99.90;;;;;;5042916;28;20310;-86
2022/02/07 01:12:20;;;;;;;2.88;0.98;;;0.70;99.90;;;;;;5051741;28;20049;-86
2022/02/07 01:18:39;;;;;;;0.80;0.80;;;0.80;99.90;;;;;;5054279;28;20041;-85
2022/02/07 01:58:16;;;;;;;5.82;0.90;;;0.90;99.90;;;;;;5051103;28;20084;-87
2022/02/07 02:01:04;;;;;;;1.95;1.10;;;1.00;99.90;;;;;;5065190;28;20127;-86
2022/02/07 02:03:53;;;;;;;2.95;1.20;;;1.00;99.90;;;;;;5045436;28;20045;-86
2022/02/07 02:06:41;;;;;;;1.50;1.00;;;1.10;99.90;;;;;;5040350;28;20109;-87
2022/02/07 02:09:31;;;;;;;3.05;0.98;;;1.10;99.90;;;;;;5036582;28;20670;-87
2022/02/07 02:12:20;;;;;;;3.65;1.20;;;1.10;99.90;;;;;;5064473;28;20056;-86
2022/02/07 02:36:31;;;;;;;3.45;1.30;;;1.40;99.90;;;;;;5068545;28;20061;-88
2022/02/07 02:45:35;;;;;;;7.07;1.70;;;1.30;99.90;;;;;;5059923;28;20084;-88
2022/02/07 02:48:30;;;;;;;5.68;1.50;;;1.30;99.90;;;;;;5064416;28;20025;-87
2022/02/07 02:51:18;;;;;;;3.83;1.77;;;1.30;99.90;;;;;;5063781;28;20029;-86
2022/02/07 02:54:07;;;;;;;6.65;1.63;;;1.30;99.90;;;;;;5063628;28;20060;-85
2022/02/07 02:56:54;;;;;;;6.65;1.55;;;1.30;99.90;;;;;;5063029;28;20082;-86
2022/02/07 02:59:42;;;;;;;7.80;2.80;;;1.30;99.90;;;;;;5064093;28;20048;-87
2022/02/07 03:02:30;;;;;;;4.47;1.50;;;1.30;99.90;;;;;;5062737;28;20033;-85
2022/02/07 03:05:19;;;;;;;6.78;1.70;;;1.30;99.90;;;;;;5061951;28;20069;-86
2022/02/07 03:08:10;;;;;;;9.02;1.80;;;1.30;99.90;;;;;;5050680;28;20373;-87
2022/02/07 03:11:03;;;;;;;7.85;2.38;;;1.40;99.90;;;;;;5049910;28;20045;-86
2022/02/07 03:13:54;;;;;;;1.98;1.45;;;1.40;99.90;;;;;;5047343;28;20075;-86
2022/02/07 03:16:41;;;;;;;5.18;1.95;;;1.40;99.90;;;;;;5046793;28;20041;-86
2022/02/07 03:19:28;;;;;;;5.07;1.63;;;1.40;99.90;;;;;;5061245;28;20142;-85
2022/02/07 03:22:15;;;;;;;12.80;2.15;;;1.40;99.90;;;;;;5032578;28;20053;-85
2022/02/07 03:25:03;;;;;;;5.55;1.80;;;1.40;99.90;;;;;;5030198;28;20107;-86
2022/02/07 03:27:50;;;;;;;9.27;1.92;;;1.30;99.90;;;;;;5037500;28;20049;-88
2022/02/07 03:30:38;;;;;;;13.40;4.10;;;1.30;99.90;;;;;;5046260;28;20059;-86
2022/02/07 03:33:25;;;;;;;7.40;2.00;;;1.20;99.90;;;;;;5068835;28;20158;-86
2022/02/07 03:36:15;;;;;;;10.80;2.13;;;1.20;99.90;;;;;;5070822;28;20052;-87
2022/02/07 03:39:04;;;;;;;9.70;1.70;;;1.20;99.90;;;;;;5075757;28;20063;-86
2022/02/07 03:41:53;;;;;;;7.70;1.95;;;1.20;99.90;;;;;;5035574;28;20046;-86
2022/02/07 03:44:40;;;;;;;5.57;1.83;;;1.20;99.90;;;;;;5039360;28;20045;-87
2022/02/07 03:47:30;;;;;;;7.72;2.35;;;1.30;99.90;;;;;;5054863;28;20059;-88
2022/02/07 03:50:18;;;;;;;7.07;1.80;;;1.30;99.90;;;;;;5031811;28;20057;-84
2022/02/07 03:53:07;;;;;;;7.30;2.08;;;1.30;99.90;;;;;;5049027;28;20040;-86
2022/02/07 03:55:56;;;;;;;5.55;1.73;;;1.30;99.90;;;;;;5055088;28;20037;-87
2022/02/07 03:58:44;;;;;;;9.43;2.35;;;1.30;99.90;;;;;;5054649;28;20037;-87
2022/02/07 04:01:34;;;;;;;7.63;1.83;;;1.30;99.90;;;;;;5041072;28;20084;-85
2022/02/07 04:04:22;;;;;;;4.57;1.20;;;1.40;99.90;;;;;;5043475;28;20060;-85
2022/02/07 04:07:12;;;;;;;2.20;1.15;;;1.00;99.90;;;;;;5054014;28;20068;-84
2022/02/07 04:10:00;;;;;;;1.88;1.10;;;0.70;99.90;;;;;;5037364;28;20374;-86
2022/02/07 04:12:54;;;;;;;3.20;1.00;;;0.60;99.90;;;;;;5041413;28;20142;-86
2022/02/07 04:15:41;;;;;;;3.15;1.00;;;0.50;99.90;;;;;;5033212;28;20117;-86
2022/02/07 04:18:50;;;;;;;1.60;0.95;;;0.50;99.90;;;;;;5054547;28;20048;-85
2022/02/07 04:21:42;;;;;;;1.23;1.00;;;0.50;99.90;;;;;;5036920;28;20033;-85
2022/02/07 04:24:32;;;;;;;2.17;1.20;;;0.50;99.90;;;;;;5046592;28;20052;-86
2022/02/07 04:27:19;;;;;;;1.00;0.90;;;0.50;99.90;;;;;;5017368;28;20053;-86
2022/02/07 04:30:08;;;;;;;3.35;1.00;;;0.50;99.90;;;;;;5047493;28;20068;-86
2022/02/07 04:32:55;;;;;;;3.47;1.35;;;0.50;99.90;;;;;;5039390;28;20060;-86
2022/02/07 04:35:45;;;;;;;3.28;1.13;;;0.50;99.90;;;;;;5026899;28;20056;-85
2022/02/07 04:38:34;;;;;;;5.40;1.20;;;0.50;99.90;;;;;;5037742;28;20044;-86
2022/02/07 04:41:24;;;;;;;5.30;1.27;;;0.50;99.90;;;;;;5059298;28;20100;-86
2022/02/07 04:44:16;;;;;;;5.03;1.60;;;0.60;99.90;;;;;;5057009;28;20041;-87
2022/02/07 04:47:33;;;;;;;3.45;1.20;;;0.50;99.90;;;;;;5027687;28;20111;-88
2022/02/07 04:53:40;;;;;;;2.03;1.40;;;0.50;99.90;;;;;;5051610;28;20055;-86
2022/02/07 04:59:20;;;;;;;5.15;1.70;;;0.50;99.90;;;;;;5052524;28;20447;-87
2022/02/07 05:02:16;;;;;;;10.13;1.50;;;0.50;99.90;;;;;;5043021;28;20055;-85
2022/02/07 05:13:47;;;;;;;5.80;1.70;;;0.40;99.90;;;;;;5050430;28;20068;-86
2022/02/07 05:16:39;;;;;;;9.35;2.00;;;0.30;99.90;;;;;;5054125;28;20045;-85
2022/02/07 05:19:28;;;;;;;11.45;2.22;;;0.30;99.90;;;;;;5018995;28;20045;-85
2022/02/07 05:22:15;;;;;;;6.60;1.75;;;0.30;99.90;;;;;;5033893;28;20347;-88
2022/02/07 05:25:04;;;;;;;11.88;2.03;;;0.30;99.90;;;;;;5026961;28;20474;-86
2022/02/07 05:27:51;;;;;;;6.90;1.55;;;0.30;99.90;;;;;;5047612;28;20420;-86
2022/02/07 05:30:39;;;;;;;4.63;1.52;;;0.30;99.90;;;;;;5044300;28;20160;-86
2022/02/07 05:33:39;;;;;;;12.85;1.75;;;0.30;99.90;;;;;;5037771;28;20044;-87
2022/02/07 05:36:47;;;;;;;4.47;1.67;;;0.30;99.90;;;;;;5036984;28;20059;-86
2022/02/07 05:52:21;;;;;;;7.97;1.60;;;0.30;99.90;;;;;;5040558;28;20029;-88
2022/02/07 05:56:27;;;;;;;9.40;1.92;;;0.30;99.90;;;;;;5051318;28;20801;-89
2022/02/07 05:59:57;;;;;;;5.28;1.67;;;0.30;99.90;;;;;;4931484;29;20343;-88
2022/02/07 06:02:45;;;;;;;5.53;1.55;;;0.40;99.90;;;;;;4969898;28;20050;-89
2022/02/07 06:05:36;;;;;;;10.60;2.15;;;0.30;99.90;;;;;;4976400;28;20035;-89
2022/02/07 06:08:35;;;;;;;;;;;;;;;;;;;;;
2022/02/07 06:11:27;;;;;;;8.05;2.40;;;0.30;99.90;;;;;;5048026;28;20160;-89
2022/02/07 06:14:15;;;;;;;9.40;2.67;;;0.30;99.90;;;;;;5039809;28;20111;-89
2022/02/07 06:17:03;;;;;;;9.30;2.30;;;0.30;99.90;;;;;;5045289;28;20113;-89
2022/02/07 06:19:53;;;;;;;10.35;2.13;;;0.40;99.90;;;;;;5067823;28;20059;-89
2022/02/07 06:22:45;;;;;;;10.95;2.30;;;0.30;99.90;;;;;;5060649;28;20092;-91
2022/02/07 06:29:53;;;;;;;14.45;3.28;;;0.40;99.90;;;;;;4999999;28;20037;-88
2022/02/07 06:33:24;;;;;;;;;;;;;;;;;;;;;
2022/02/07 06:46:05;;;;;;;;;;;;;;;;;;;;;
2022/02/07 06:49:52;;;;;;;7.43;1.80;;;0.40;99.90;;;;;;4942914;28;20170;-89
2022/02/07 07:00:59;;;;;;;7.00;1.95;;;0.50;99.90;;;;;;4806403;29;20660;-87
2022/02/07 07:04:14;;;;;;;11.85;2.72;;;0.50;99.90;;;;;;4836142;29;20081;-88
2022/02/07 07:07:24;;;;;;;10.43;2.70;;;0.40;99.90;;;;;;4912659;29;20120;-88
2022/02/07 07:10:33;;;;;;;7.15;2.78;;;0.40;99.90;;;;;;4927823;29;20126;-88
2022/02/07 07:13:43;;;;;;;12.65;2.67;;;0.40;99.90;;;;;;4915344;29;20048;-87
2022/02/07 07:20:02;;;;;;;9.10;2.40;;;0.40;99.90;;;;;;4979574;28;20038;-89
2022/02/07 07:23:50;;;;;;;16.88;2.75;;;0.60;99.90;;;;;;4975356;28;20093;-86
2022/02/07 07:27:47;;;;;;;;;;;;;;;;;;;;;
2022/02/07 07:31:11;;;;;;;10.90;2.40;;;0.90;99.90;;;;;;4973375;28;20504;-87
2022/02/07 07:34:26;;;;;;;9.82;2.80;;;1.00;99.90;;;;;;4998331;28;20046;-85
2022/02/07 07:41:58;;;;;;;;;;;;;;;;;;;;;
2022/02/07 08:05:18;;;;;;;;;;;;;;;;;;;;;
2022/02/07 08:09:32;;;;;;;;;;;;;;;;;;;;;
2022/02/07 08:17:02;;;;;;;11.02;2.67;;;1.90;99.90;;;;;;4812994;29;20063;-90
2022/02/07 08:20:38;;;;;;;;;;;;;;;;;;;;;
2022/02/07 08:31:24;;;;;;;8.73;2.10;;;2.20;99.90;;;;;;4895699;28;19917;-87
2022/02/07 08:41:41;;;;;;;14.13;1.92;;;2.70;99.90;;;;;;4911366;29;20061;-89
2022/02/07 08:44:38;;;;;;;9.38;1.95;;;2.90;99.90;;;;;;4914971;29;20060;-89
2022/02/07 08:48:05;;;;;;;6.47;1.80;;;3.10;99.90;;;;;;4915560;28;20056;-88
2022/02/07 08:51:33;;;;;;;6.63;2.50;;;3.40;99.90;;;;;;4922407;29;20055;-90
2022/02/07 08:58:43;;;;;;;10.48;2.03;;;4.00;99.90;;;;;;4887742;29;20053;-89
2022/02/07 09:18:07;;;;;;;8.40;2.00;;;3.10;99.90;;;;;;4955542;28;20106;-89
2022/02/07 09:21:39;;;;;;;;;;;;;;;;;;;;;
2022/02/07 09:28:44;;;;;;;6.65;1.98;;;3.20;99.90;;;;;;4968133;28;20836;-88
2022/02/07 09:32:05;;;;;;;;;;;;;;;;;;;;;
2022/02/07 09:35:43;;;;;;;13.98;3.50;;;3.20;99.90;;;;;;4995158;28;20049;-88
2022/02/07 09:38:54;;;;;;;15.35;2.58;;;3.30;99.90;;;;;;5021099;28;20054;-89
2022/02/07 09:41:52;;;;;;;10.40;2.47;;;3.30;99.90;;;;;;5028098;28;20108;-89
2022/02/07 09:48:31;;;;;;;11.30;2.60;;;3.60;99.90;;;;;;4986930;28;20105;-88
2022/02/07 09:51:19;;;;;;;15.77;3.08;;;4.30;99.90;;;;;;4988787;28;20050;-89
2022/02/07 09:54:16;;;;;;;7.07;2.15;;;4.70;99.90;;;;;;4994979;28;20185;-89
2022/02/07 09:57:50;;;;;;;9.23;2.88;;;5.20;99.90;;;;;;4951420;29;20058;-89
2022/02/07 10:00:42;;;;;;;8.23;2.17;;;6.80;99.90;;;;;;4951624;28;20066;-88
2022/02/07 10:03:48;;;;;;;8.20;2.20;;;8.00;99.90;;;;;;4944682;29;20051;-87
2022/02/07 10:06:53;;;;;;;8.40;2.10;;;8.80;96.00;;;;;;4952940;28;20091;-90
2022/02/07 10:10:13;;;;;;;8.95;2.15;;;8.70;93.50;;;;;;4962670;28;20058;-86
2022/02/07 10:13:22;;;;;;;;;;;;;;;;;;;;;
2022/02/07 10:19:35;;;;;;;11.43;2.50;;;8.00;91.40;;;;;;5043432;28;20037;-90
2022/02/07 10:42:12;;;;;;;11.77;2.20;;;7.80;93.70;;;;;;5050777;28;20057;-88
2022/02/07 10:48:55;;;;;;;11.18;2.33;;;5.90;98.00;;;;;;5052087;28;20044;-91
2022/02/07 10:52:57;;;;;;;;;;;;;;;;;;;;;
2022/02/07 10:56:53;;;;;;;;;;;;;;;;;;;;;
2022/02/07 11:00:34;;;;;;;;;;;;;;;;;;;;;
2022/02/07 11:08:16;;;;;;;;;;;;;;;;;;;;;
2022/02/07 11:14:53;;;;;;;9.43;2.35;;;4.10;99.90;;;;;;4919254;29;20048;-88
2022/02/07 11:21:33;;;;;;;;;;;;;;;;;;;;;
2022/02/07 11:31:58;;;;;;;12.25;3.22;;;3.80;99.90;;;;;;4919131;29;20051;-86
2022/02/07 11:35:40;;;;;;;13.40;3.17;;;3.50;99.90;;;;;;4921836;29;20560;-87
2022/02/07 11:39:30;;;;;;;;;;;;;;;;;;;;;
2022/02/07 11:43:17;;;;;;;;;;;;;;;;;;;;;
2022/02/07 11:47:07;;;;;;;8.20;2.50;;;3.30;99.90;;;;;;4919903;28;20043;-87
2022/02/07 11:50:10;;;;;;;13.00;2.50;;;3.30;99.90;;;;;;5029078;28;20084;-88
2022/02/07 11:58:09;;;;;;;11.98;2.22;;;3.40;99.90;;;;;;4948729;28;20518;-87
2022/02/07 12:09:34;;;;;;;9.10;2.65;;;3.50;99.90;;;;;;4773718;29;20156;-90
2022/02/07 12:12:47;;;;;;;13.82;3.40;;;3.50;99.90;;;;;;4795164;29;20042;-88
2022/02/07 12:15:54;;;;;;;11.20;2.80;;;3.60;99.90;;;;;;4844368;29;20085;-87
2022/02/07 12:18:49;;;;;;;17.70;3.05;;;3.70;99.90;;;;;;4829513;29;20106;-88
2022/02/07 12:21:55;;;;;;;15.75;3.60;;;3.70;99.90;;;;;;4857459;28;20093;-89
2022/02/07 12:25:19;;;;;;;14.88;2.92;;;3.80;99.90;;;;;;4996777;28;20102;-89
2022/02/07 12:28:58;;;;;;;10.85;2.67;;;3.70;99.90;;;;;;4998624;28;20098;-88
2022/02/07 12:32:03;;;;;;;20.63;2.83;;;3.80;99.90;;;;;;4995844;28;20096;-88
2022/02/07 12:35:44;;;;;;;13.02;2.67;;;3.80;99.90;;;;;;4989517;28;20516;-89
2022/02/07 12:39:01;;;;;;;8.82;2.70;;;3.70;99.90;;;;;;4971709;28;20192;-88
2022/02/07 12:49:46;;;;;;;;;;;;;;;;;;;;;
2022/02/07 12:53:35;;;;;;;12.45;3.15;;;3.90;99.90;;;;;;4859747;29;20049;-89
2022/02/07 12:56:48;;;;;;;15.65;3.20;;;3.90;99.90;;;;;;4855830;29;20045;-90
2022/02/07 12:59:50;;;;;;;;;;;3.90;99.90;;;;;;4875161;29;20124;-84
2022/02/07 13:03:10;;;;;;;10.20;2.60;;;3.90;99.90;;;;;;4884017;29;20068;-87
2022/02/07 13:06:04;;;;;;;12.80;2.60;;;4.00;99.90;;;;;;4919870;29;20051;-85
2022/02/07 13:09:40;;;;;;;10.70;3.00;;;3.90;99.90;;;;;;4932006;29;20142;-88
2022/02/07 13:15:22;;;;;;;12.50;3.08;;;3.80;99.90;;;;;;4978908;28;20050;-90
2022/02/07 13:18:15;;;;;;;6.85;2.25;;;3.70;99.90;;;;;;5053965;28;20041;-90
2022/02/07 13:21:12;;;;;;;16.25;2.88;;;3.80;99.90;;;;;;5058906;28;20148;-88
2022/02/07 13:24:11;;;;;;;8.55;2.35;;;3.90;99.90;;;;;;5047581;28;20041;-88
2022/02/07 13:27:02;;;;;;;11.48;2.97;;;4.20;99.90;;;;;;5057516;28;20094;-91
2022/02/07 13:29:57;;;;;;;7.40;2.08;;;4.50;99.90;;;;;;5049107;28;20366;-91
2022/02/07 13:32:52;;;;;;;12.02;2.70;;;4.70;99.90;;;;;;5042152;28;20055;-89
2022/02/07 13:35:56;;;;;;;8.50;2.58;;;4.40;99.90;;;;;;5038560;28;20053;-89
2022/02/07 13:39:08;;;;;;;10.30;2.63;;;4.30;99.90;;;;;;5035295;28;20052;-90
2022/02/07 13:42:15;;;;;;;11.80;2.67;;;4.40;99.90;;;;;;5045886;28;20033;-90
2022/02/07 13:45:13;;;;;;;6.72;2.13;;;4.40;99.90;;;;;;5030112;28;20051;-91
2022/02/07 13:48:00;;;;;;;9.35;2.40;;;4.20;99.90;;;;;;5050285;28;20055;-88
2022/02/07 13:54:35;;;;;;;8.80;2.45;;;4.90;99.90;;;;;;5051542;28;20045;-89
2022/02/07 14:02:44;;;;;;;;;;;;;;;;;;;;;
2022/02/07 14:06:36;;;;;;;15.63;2.90;;;5.80;99.90;;;;;;4909664;29;20413;-92
2022/02/07 14:10:08;;;;;;;;;;;;;;;;;;;;;
2022/02/07 14:21:38;;;;;;;8.05;2.80;;;6.20;99.90;;;;;;4932284;29;20058;-91
2022/02/07 14:24:35;;;;;;;13.35;3.28;;;6.50;99.90;;;;;;4936027;29;20081;-91
2022/02/07 14:27:40;;;;;;;9.60;3.92;;;7.20;99.20;;;;;;4947547;29;20103;-90
2022/02/07 14:31:58;;;;;;;8.48;2.60;;;7.30;98.10;;;;;;5000898;28;20097;-89
2022/02/07 14:43:49;;;;;;;8.18;2.33;;;9.30;88.20;;;;;;4869375;29;20030;-90
2022/02/07 14:53:08;;;;;;;;;;;;;;;;;;;;;
2022/02/07 15:21:45;;;;;;;;;;;;;;;;;;;;;
2022/02/07 15:48:08;;;;;;;13.15;3.20;;;5.10;99.90;;;;;;4977799;28;20545;-88
2022/02/07 15:51:20;;;;;;;11.15;3.13;;;4.90;99.90;;;;;;4982745;28;20050;-89
2022/02/07 15:54:11;;;;;;;15.20;3.63;;;4.70;99.90;;;;;;5008045;28;20061;-91
2022/02/07 15:57:00;;;;;;;10.27;3.15;;;4.40;99.90;;;;;;5013429;28;20103;-88
2022/02/07 15:59:47;;;;;;;9.60;3.67;;;4.00;99.90;;;;;;5010976;28;20042;-88
2022/02/07 16:02:43;;;;;;;10.73;3.17;;;3.70;99.90;;;;;;5014999;28;20041;-91
2022/02/07 16:05:33;;;;;;;12.23;3.22;;;3.30;99.90;;;;;;5012574;28;20038;-91
2022/02/07 16:08:20;;;;;;;12.20;3.92;;;3.10;99.90;;;;;;5007932;28;20068;-88
2022/02/07 16:11:08;;;;;;;11.48;3.08;;;2.90;99.90;;;;;;5006635;28;20121;-89
2022/02/07 16:14:01;;;;;;;19.42;3.83;;;2.80;99.90;;;;;;5002508;28;20053;-88
2022/02/07 16:16:49;;;;;;;;;;;2.70;99.90;;;;;;5016834;28;20173;-88
2022/02/07 16:19:37;;;;;;;12.95;3.45;;;2.60;99.90;;;;;;5014366;28;20004;-87
2022/02/07 16:22:31;;;;;;;11.65;3.05;;;2.50;99.90;;;;;;5012896;28;20041;-86
2022/02/07 16:25:21;;;;;;;13.25;3.70;;;2.40;99.90;;;;;;5014079;28;20053;-89
2022/02/07 16:28:12;;;;;;;9.50;3.05;;;2.30;99.90;;;;;;5014127;28;20153;-88
2022/02/07 16:31:09;;;;;;;18.13;3.58;;;2.20;99.90;;;;;;5014358;28;20049;-88
2022/02/07 16:33:56;;;;;;;12.70;3.40;;;2.10;99.90;;;;;;5015226;28;20127;-89
2022/02/07 16:36:49;;;;;;;15.60;3.80;;;2.10;99.90;;;;;;5003964;28;20073;-87
2022/02/07 16:39:36;;;;;;;19.75;6.25;;;2.00;99.90;;;;;;5001539;28;20147;-89
2022/02/07 16:42:23;;;;;;;15.02;3.83;;;1.90;99.90;;;;;;5013632;28;20451;-91
2022/02/07 16:45:36;;;;;;;16.73;3.72;;;1.90;99.90;;;;;;5011431;28;20037;-92
2022/02/07 16:48:26;;;;;;;;;;;1.80;99.90;;;;;;5010173;28;20060;-89
2022/02/07 16:51:15;;;;;;;16.13;3.50;;;1.70;99.90;;;;;;5011846;28;19925;-90
2022/02/07 16:54:07;;;;;;;12.73;3.50;;;1.70;99.90;;;;;;5005944;28;20116;-88
2022/02/07 16:56:57;;;;;;;15.38;3.38;;;1.60;99.90;;;;;;5012337;28;20060;-88
2022/02/07 16:59:44;;;;;;;16.10;4.20;;;1.60;99.90;;;;;;5014214;28;20444;-90
2022/02/07 17:02:32;;;;;;;14.60;3.80;;;1.50;99.90;;;;;;5007191;28;20060;-89
2022/02/07 17:05:31;;;;;;;13.63;4.40;;;1.50;99.90;;;;;;5013281;28;20069;-89
2022/02/07 17:08:18;;;;;;;15.43;4.25;;;1.50;99.90;;;;;;5008269;28;20048;-89
2022/02/07 17:11:08;;;;;;;21.25;4.63;;;1.50;99.90;;;;;;5011216;28;20053;-88
2022/02/07 17:13:58;;;;;;;14.77;4.10;;;1.40;99.90;;;;;;5009891;28;20050;-88
2022/02/07 17:16:54;;;;;;;15.85;5.43;;;1.30;99.90;;;;;;5010706;28;20060;-88
2022/02/07 17:19:42;;;;;;;13.73;4.18;;;1.30;99.90;;;;;;5011007;28;20045;-90
2022/02/07 17:22:30;;;;;;;16.33;5.13;;;1.40;99.90;;;;;;5005671;28;20135;-90
2022/02/07 17:25:20;;;;;;;18.27;5.22;;;1.40;99.90;;;;;;4998503;28;20113;-88
2022/02/07 17:28:12;;;;;;;11.82;4.75;;;1.50;99.90;;;;;;5005136;28;20052;-90
2022/02/07 17:30:59;;;;;;;31.73;6.43;;;1.40;99.90;;;;;;5011368;28;20049;-89
2022/02/07 17:33:50;;;;;;;23.10;6.60;;;1.40;99.90;;;;;;5006377;28;20050;-92
2022/02/07 17:36:37;;;;;;;18.60;5.28;;;1.30;99.90;;;;;;5010598;28;20173;-89
2022/02/07 17:39:26;;;;;;;16.13;5.40;;;1.20;99.90;;;;;;5008934;28;20147;-88
2022/02/07 17:42:14;;;;;;;18.15;4.95;;;1.30;99.90;;;;;;5011699;28;20061;-89
2022/02/07 17:45:01;;;;;;;13.48;5.10;;;1.30;99.90;;;;;;5001292;28;20046;-87
2022/02/07 17:47:49;;;;;;;21.13;5.75;;;1.20;99.90;;;;;;5000688;28;20359;-91
2022/02/07 17:50:37;;;;;;;16.65;5.78;;;1.20;99.90;;;;;;5008132;28;20053;-88
2022/02/07 17:53:28;;;;;;;16.63;5.88;;;1.10;99.90;;;;;;5010714;28;20061;-88
2022/02/07 17:56:17;;;;;;;19.50;5.43;;;1.10;99.90;;;;;;5012263;28;20456;-89
2022/02/07 17:59:13;;;;;;;21.65;6.57;;;1.10;99.90;;;;;;5005559;28;20077;-89
2022/02/07 18:02:02;;;;;;;14.40;5.60;;;1.00;99.90;;;;;;4996089;28;20458;-89
2022/02/07 18:04:56;;;;;;;21.43;6.67;;;1.00;99.90;;;;;;5011910;28;20423;-89
2022/02/07 18:07:45;;;;;;;12.77;5.53;;;0.90;99.90;;;;;;5016154;28;20249;-90
2022/02/07 18:10:36;;;;;;;24.30;6.63;;;0.90;99.90;;;;;;5005973;28;20086;-89
2022/02/07 18:13:40;;;;;;;26.33;8.07;;;0.90;99.90;;;;;;5016802;28;20064;-87
2022/02/07 18:16:32;;;;;;;31.48;9.90;;;0.90;99.90;;;;;;5027413;28;20105;-87
2022/02/07 18:19:50;;;;;;;33.75;11.10;;;0.90;99.90;;;;;;4984617;28;20061;-87
2022/02/07 18:22:46;;;;;;;33.33;11.63;;;0.90;99.90;;;;;;4965670;28;20066;-88
2022/02/07 18:25:36;;;;;;;28.98;9.18;;;0.90;99.90;;;;;;4982000;28;20046;-89
2022/02/07 18:28:33;;;;;;;24.60;10.23;;;0.80;99.90;;;;;;4989974;28;20049;-88
2022/02/07 18:31:25;;;;;;;23.70;8.73;;;0.70;99.90;;;;;;4981566;28;20106;-86
2022/02/07 18:34:39;;;;;;;31.17;8.77;;;0.70;99.90;;;;;;4978939;28;20093;-87
2022/02/07 18:37:30;;;;;;;18.95;7.50;;;0.70;99.90;;;;;;4986603;28;20102;-89
2022/02/07 18:43:30;;;;;;;20.98;6.05;;;0.60;99.90;;;;;;4987984;28;20136;-88
2022/02/07 18:46:36;;;;;;;25.05;8.60;;;0.60;99.90;;;;;;5016600;28;20030;-86
2022/02/07 18:49:38;;;;;;;24.45;5.60;;;0.50;99.90;;;;;;5030649;28;20461;-87
2022/02/07 18:52:26;;;;;;;27.02;7.38;;;0.60;99.90;;;;;;5031911;28;20058;-88
2022/02/07 18:55:13;;;;;;;21.98;5.97;;;0.60;99.90;;;;;;5027064;28;20042;-88
2022/02/07 18:58:22;;;;;;;16.60;5.53;;;0.60;99.90;;;;;;5028509;28;20048;-88
2022/02/07 19:01:19;;;;;;;20.05;5.90;;;0.60;99.90;;;;;;5003558;28;20034;-89
2022/02/07 19:04:14;;;;;;;18.92;5.60;;;0.50;99.90;;;;;;5007427;28;20042;-87
2022/02/07 19:07:12;;;;;;;25.40;6.68;;;0.50;99.90;;;;;;5012126;28;20056;-89
2022/02/07 19:10:27;;;;;;;31.25;6.70;;;0.50;99.90;;;;;;5016339;28;20053;-89
2022/02/07 19:13:15;;;;;;;23.98;6.80;;;0.50;99.90;;;;;;5024153;28;20050;-87
2022/02/07 19:16:04;;;;;;;17.38;7.07;;;0.40;99.90;;;;;;5026131;28;20052;-88
2022/02/07 19:18:59;;;;;;;19.50;7.25;;;0.40;99.90;;;;;;5032712;28;20033;-89
2022/02/07 19:21:54;;;;;;;27.27;10.45;;;0.30;99.90;;;;;;5032534;28;20053;-87
2022/02/07 19:24:53;;;;;;;32.22;12.23;;;0.30;99.90;;;;;;5035489;28;20033;-88
2022/02/07 19:28:03;;;;;;;43.55;15.45;;;0.20;99.90;;;;;;5026667;28;20044;-88
2022/02/07 19:31:15;;;;;;;31.35;10.20;;;0.20;99.90;;;;;;5025771;28;20093;-88
2022/02/07 19:37:53;;;;;;;28.65;12.48;;;0.00;99.90;;;;;;5025078;28;20465;-91
2022/02/07 19:40:47;;;;;;;21.70;8.80;;;0.20;99.90;;;;;;5005550;28;20454;-88
2022/02/07 19:43:46;;;;;;;;;;;0.20;99.90;;;;;;5000515;28;20121;-91
2022/02/07 19:46:37;;;;;;;20.38;7.65;;;0.20;99.90;;;;;;5012208;28;19921;-87
2022/02/07 19:49:27;;;;;;;25.08;7.63;;;0.10;99.90;;;;;;5015055;28;20101;-90
2022/02/07 19:52:25;;;;;;;24.75;7.70;;;0.10;99.90;;;;;;5007896;28;20054;-91
2022/02/07 19:55:15;;;;;;;20.70;6.80;;;0.20;99.90;;;;;;5015618;28;20360;-89
2022/02/07 19:58:04;;;;;;;18.88;5.28;;;0.30;99.90;;;;;;5016224;28;20061;-90
2022/02/07 20:00:57;;;;;;;24.98;7.40;;;0.30;99.90;;;;;;5013174;28;20060;-89
2022/02/07 20:03:49;;;;;;;19.48;6.82;;;0.40;99.90;;;;;;5015229;28;20042;-90
2022/02/07 20:06:39;;;;;;;16.50;5.05;;;0.40;99.90;;;;;;5013004;28;20100;-87
2022/02/07 20:09:31;;;;;;;20.98;6.32;;;0.50;99.90;;;;;;5020608;28;20065;-88
2022/02/07 20:12:28;;;;;;;23.15;6.38;;;0.50;99.90;;;;;;5022498;28;20053;-88
2022/02/07 20:15:15;;;;;;;17.10;6.57;;;0.50;99.90;;;;;;5013353;28;20045;-90
2022/02/07 20:18:08;;;;;;;20.38;8.60;;;0.50;99.90;;;;;;5013668;28;20075;-87
2022/02/07 20:21:06;;;;;;;23.13;8.93;;;0.40;99.90;;;;;;5021702;28;20057;-87
2022/02/07 20:24:10;;;;;;;26.25;8.38;;;0.40;99.90;;;;;;5004339;28;20042;-90
2022/02/07 20:27:02;;;;;;;21.05;7.82;;;0.40;99.90;;;;;;5022298;28;20439;-88
2022/02/07 20:29:57;;;;;;;27.38;9.02;;;0.40;99.90;;;;;;5008932;28;20050;-90
2022/02/07 20:32:54;;;;;;;22.08;8.52;;;0.30;99.90;;;;;;5012242;28;20104;-90
2022/02/07 20:35:43;;;;;;;26.85;8.45;;;0.30;99.90;;;;;;5007629;28;20054;-89
2022/02/07 20:38:33;;;;;;;20.92;6.13;;;0.30;99.90;;;;;;4998470;28;20161;-90
2022/02/07 20:41:23;;;;;;;18.08;5.72;;;0.20;99.90;;;;;;5005372;28;20042;-88
2022/02/07 20:44:10;;;;;;;28.20;8.77;;;0.20;99.90;;;;;;4984948;28;20501;-89
2022/02/07 20:47:14;;;;;;;18.38;6.68;;;0.20;99.90;;;;;;5010083;28;20046;-90
2022/02/07 20:50:11;;;;;;;23.48;8.63;;;0.20;99.90;;;;;;5007831;28;20050;-88
2022/02/07 20:52:59;;;;;;;33.42;11.15;;;0.20;99.90;;;;;;4998927;28;20062;-91
2022/02/07 20:55:48;;;;;;;31.38;10.55;;;0.10;99.90;;;;;;5016442;28;20459;-90
2022/02/07 20:58:56;;;;;;;23.38;10.10;;;0.00;99.90;;;;;;5008799;28;20046;-89
2022/02/07 21:01:54;;;;;;;16.85;7.50;;;0.00;99.90;;;;;;5005515;28;20141;-90
2022/02/07 21:04:48;;;;;;;27.92;9.90;;;0.00;99.90;;;;;;5015520;28;20099;-91
2022/02/07 21:07:39;;;;;;;22.65;7.00;;;0.00;99.90;;;;;;5015003;28;20061;-86
2022/02/07 21:10:28;;;;;;;39.42;12.40;;;-0.10;99.90;;;;;;5008367;28;20053;-90
2022/02/07 21:13:26;;;;;;;29.67;7.30;;;-0.10;99.90;;;;;;5005345;28;20386;-90
2022/02/07 21:16:16;;;;;;;15.43;6.13;;;-0.10;99.90;;;;;;5014561;28;20050;-90
2022/02/07 21:19:04;;;;;;;18.58;7.03;;;-0.10;99.90;;;;;;5013257;28;20181;-91
2022/02/07 21:21:59;;;;;;;15.77;5.50;;;0.00;99.90;;;;;;5001895;28;20069;-88
2022/02/07 21:24:51;;;;;;;23.73;5.82;;;0.10;99.90;;;;;;5016649;28;20054;-87
2022/02/07 21:27:40;;;;;;;32.35;11.40;;;0.10;99.90;;;;;;5011054;28;20046;-88
2022/02/07 21:30:30;;;;;;;31.42;10.05;;;0.10;99.90;;;;;;5012785;28;20057;-87
2022/02/07 21:34:06;;;;;;;24.63;6.63;;;0.00;99.90;;;;;;5008772;28;20114;-89
2022/02/07 22:48:00;;;;;;;;;;;;;;;;;;;;;
2022/02/07 23:04:58;;;;;;;;;;;;;;;;;;;;;
2022/02/07 23:21:09;;;;;;;15.70;4.15;;;-0.20;99.90;;;;;;6204668;23;20034;-85
